PWSweather.com
Personal Weather Stations
Station Observations
KAZPHOEN90
RayThunderhill, Phoenix, AZ

RayThunderhillPhoenix, AZ

Lat: 33.312, Lon: -112.029

Elevation: 1260

Station Type: Davis Vantage VUE

High Low Average
Temperature 85.7°F29.8°F 53.4°F11.9°F 67.6°F19.8°F
Dew Point 33.7°F0.9°F 28.7°F-1.8°F 31.4°F-0.3°F
Winds 2.8 mph ESE4.5 mph ESE Calm Calm 0.2 mph 0.3 mph
Wind Gusts 4.0 mph6.4 mph -- 0.5 mph0.8 mph
Humidity 45% 13% 28%
Pressure 30.12 in1020.00 in 30.00 in1015.90 in -
Precipitation 0.00 in0.00 in - -
Hour Temp Dew Point Humidity Winds Wind Gusts Pressure Precip Precip Rate Daily Precip Total
12:00 AM 63.7°F17.6°C 29.1°F-1.6°C 27% Calm Calm -- 30.03 in1016.9 mb - 0.00 in0.0 mm 0.00 in0.0 mm
12:15 AM 61.9°F16.6°C 30.1°F-1.1°C 30% Calm Calm -- 30.03 in1016.9 mb - 0.00 in0.0 mm 0.00 in0.0 mm
12:30 AM 61.4°F16.3°C 29.7°F-1.3°C 30% Calm Calm -- 30.03 in1016.9 mb - 0.00 in0.0 mm 0.00 in0.0 mm
12:45 AM 60.1°F15.6°C 30.1°F-1.1°C 32% Calm Calm -- 30.03 in1016.9 mb - 0.00 in0.0 mm 0.00 in0.0 mm
01:00 AM 58.6°F14.8°C 30.3°F-0.9°C 34% Calm Calm -- 30.03 in1016.9 mb - 0.00 in0.0 mm 0.00 in0.0 mm
01:15 AM 58.1°F14.5°C 29.9°F-1.2°C 34% Calm Calm -- 30.04 in1017.3 mb - 0.00 in0.0 mm 0.00 in0.0 mm
01:30 AM 57.7°F14.3°C 30.2°F-1.0°C 35% Calm Calm -- 30.04 in1017.3 mb - 0.00 in0.0 mm 0.00 in0.0 mm
01:45 AM 58.4°F14.7°C 29.4°F-1.4°C 33% Calm Calm -- 30.04 in1017.3 mb - 0.00 in0.0 mm 0.00 in0.0 mm
02:00 AM 57.5°F14.2°C 30.0°F-1.1°C 35% Calm Calm -- 30.04 in1017.3 mb - 0.00 in0.0 mm 0.00 in0.0 mm
02:15 AM 56.2°F13.4°C 30.2°F-1.0°C 37% Calm Calm -- 30.04 in1017.3 mb - 0.00 in0.0 mm 0.00 in0.0 mm
02:30 AM 55.6°F13.1°C 31.0°F-0.6°C 39% Calm Calm -- 30.04 in1017.3 mb - 0.00 in0.0 mm 0.00 in0.0 mm
02:45 AM 55.4°F13.0°C 30.9°F-0.6°C 39% Calm Calm -- 30.04 in1017.3 mb - 0.00 in0.0 mm 0.00 in0.0 mm
03:00 AM 55.2°F12.9°C 31.3°F-0.4°C 40% Calm Calm -- 30.04 in1017.3 mb - 0.00 in0.0 mm 0.00 in0.0 mm
03:15 AM 54.6°F12.6°C 31.3°F-0.4°C 41% Calm Calm -- 30.04 in1017.3 mb - 0.00 in0.0 mm 0.00 in0.0 mm
03:30 AM 53.6°F12.0°C 31.6°F-0.2°C 43% Calm Calm -- 30.04 in1017.3 mb - 0.00 in0.0 mm 0.00 in0.0 mm
03:45 AM 54.3°F12.4°C 32.3°F0.2°C 43% Calm Calm -- 30.04 in1017.3 mb - 0.00 in0.0 mm 0.00 in0.0 mm
04:00 AM 55.6°F13.1°C 32.9°F0.5°C 42% Calm Calm -- 30.04 in1017.3 mb - 0.00 in0.0 mm 0.00 in0.0 mm
04:15 AM 58.5°F14.7°C 33.6°F0.9°C 39% 0.3 mph N0.5 kmh N 2.0 mph3.2 kmh 30.04 in1017.3 mb - 0.00 in0.0 mm 0.00 in0.0 mm
04:30 AM 58.6°F14.8°C 33.7°F0.9°C 39% Calm Calm -- 30.05 in1017.6 mb - 0.00 in0.0 mm 0.00 in0.0 mm
04:45 AM 57.0°F13.9°C 33.5°F0.8°C 41% Calm Calm -- 30.05 in1017.6 mb - 0.00 in0.0 mm 0.00 in0.0 mm
05:00 AM 58.0°F14.4°C 33.2°F0.7°C 39% Calm Calm -- 30.05 in1017.6 mb - 0.00 in0.0 mm 0.00 in0.0 mm
05:15 AM 57.2°F14.0°C 33.1°F0.6°C 40% 0.2 mph NNW0.3 kmh NNW 2.0 mph3.2 kmh 30.06 in1017.9 mb - 0.00 in0.0 mm 0.00 in0.0 mm
05:30 AM 57.0°F13.9°C 33.5°F0.8°C 41% Calm Calm -- 30.07 in1018.3 mb - 0.00 in0.0 mm 0.00 in0.0 mm
05:45 AM 55.1°F12.8°C 32.4°F0.2°C 42% Calm Calm -- 30.07 in1018.3 mb - 0.00 in0.0 mm 0.00 in0.0 mm
06:00 AM 53.4°F11.9°C 32.6°F0.3°C 45% Calm Calm -- 30.07 in1018.3 mb - 0.00 in0.0 mm 0.00 in0.0 mm
06:15 AM 54.2°F12.3°C 32.1°F0.1°C 43% Calm Calm -- 30.07 in1018.3 mb - 0.00 in0.0 mm 0.00 in0.0 mm
06:30 AM 55.0°F12.8°C 32.3°F0.2°C 42% Calm Calm -- 30.08 in1018.6 mb - 0.00 in0.0 mm 0.00 in0.0 mm
06:45 AM 55.1°F12.8°C 31.8°F-0.1°C 41% Calm Calm -- 30.08 in1018.6 mb - 0.00 in0.0 mm 0.00 in0.0 mm
07:00 AM 55.6°F13.1°C 31.0°F-0.6°C 39% Calm Calm 1.0 mph1.6 kmh 30.08 in1018.6 mb - 0.00 in0.0 mm 0.00 in0.0 mm
07:15 AM 55.6°F13.1°C 30.3°F-0.9°C 38% Calm Calm -- 30.09 in1019.0 mb - 0.00 in0.0 mm 0.00 in0.0 mm
07:30 AM 55.5°F13.1°C 30.3°F-0.9°C 38% 0.1 mph NE0.2 kmh NE 2.0 mph3.2 kmh 30.09 in1019.0 mb - 0.00 in0.0 mm 0.00 in0.0 mm
07:45 AM 54.7°F12.6°C 30.2°F-1.0°C 39% Calm Calm -- 30.09 in1019.0 mb - 0.00 in0.0 mm 0.00 in0.0 mm
08:00 AM 56.2°F13.4°C 30.9°F-0.6°C 38% 0.1 mph NNE0.2 kmh NNE 1.0 mph1.6 kmh 30.10 in1019.3 mb - 0.00 in0.0 mm 0.00 in0.0 mm
08:15 AM 57.5°F14.2°C 31.4°F-0.3°C 37% Calm Calm 1.0 mph1.6 kmh 30.11 in1019.6 mb - 0.00 in0.0 mm 0.00 in0.0 mm
08:30 AM 58.7°F14.8°C 31.1°F-0.5°C 35% 0.1 mph E0.2 kmh E 1.0 mph1.6 kmh 30.11 in1019.6 mb - 0.00 in0.0 mm 0.00 in0.0 mm
08:45 AM 60.4°F15.8°C 31.9°F-0.1°C 34% Calm Calm -- 30.11 in1019.6 mb - 0.00 in0.0 mm 0.00 in0.0 mm
09:00 AM 61.8°F16.6°C 32.3°F0.2°C 33% Calm Calm 1.0 mph1.6 kmh 30.11 in1019.6 mb - 0.00 in0.0 mm 0.00 in0.0 mm
09:15 AM 63.6°F17.6°C 33.2°F0.7°C 32% Calm Calm -- 30.11 in1019.6 mb - 0.00 in0.0 mm 0.00 in0.0 mm
09:30 AM 65.7°F18.7°C 32.5°F0.3°C 29% 0.1 mph E0.2 kmh E 1.0 mph1.6 kmh 30.11 in1019.6 mb - 0.00 in0.0 mm 0.00 in0.0 mm
09:45 AM 66.4°F19.1°C 32.3°F0.2°C 28% 0.1 mph E0.2 kmh E -- 30.11 in1019.6 mb - 0.00 in0.0 mm 0.00 in0.0 mm
10:00 AM 67.2°F19.6°C 31.1°F-0.5°C 26% 0.1 mph E0.2 kmh E 1.0 mph1.6 kmh 30.12 in1020.0 mb - 0.00 in0.0 mm 0.00 in0.0 mm
10:15 AM 68.4°F20.2°C 31.2°F-0.4°C 25% 0.1 mph N0.2 kmh N 1.0 mph1.6 kmh 30.12 in1020.0 mb - 0.00 in0.0 mm 0.00 in0.0 mm
10:30 AM 69.2°F20.7°C 31.9°F-0.1°C 25% Calm Calm -- 30.12 in1020.0 mb - 0.00 in0.0 mm 0.00 in0.0 mm
10:45 AM 70.9°F21.6°C 32.3°F0.2°C 24% Calm Calm -- 30.12 in1020.0 mb - 0.00 in0.0 mm 0.00 in0.0 mm
11:00 AM 71.5°F21.9°C 31.7°F-0.2°C 23% 0.1 mph SW0.2 kmh SW 1.0 mph1.6 kmh 30.11 in1019.6 mb - 0.00 in0.0 mm 0.00 in0.0 mm
11:15 AM 73.0°F22.8°C 30.7°F-0.7°C 21% Calm Calm -- 30.11 in1019.6 mb - 0.00 in0.0 mm 0.00 in0.0 mm
11:30 AM 73.9°F23.3°C 32.7°F0.4°C 22% 0.1 mph WSW0.2 kmh WSW -- 30.10 in1019.3 mb - 0.00 in0.0 mm 0.00 in0.0 mm
11:45 AM 75.6°F24.2°C 31.7°F-0.2°C 20% 0.1 mph N0.2 kmh N 1.0 mph1.6 kmh 30.10 in1019.3 mb - 0.00 in0.0 mm 0.00 in0.0 mm
12:00 PM 76.8°F24.9°C 31.4°F-0.3°C 19% 1.4 mph E2.3 kmh E 3.0 mph4.8 kmh 30.09 in1019.0 mb - 0.00 in0.0 mm 0.00 in0.0 mm
12:15 PM 77.2°F25.1°C 33.0°F0.6°C 20% Calm Calm -- 30.08 in1018.6 mb - 0.00 in0.0 mm 0.00 in0.0 mm
12:30 PM 78.1°F25.6°C 32.4°F0.2°C 19% Calm Calm 1.0 mph1.6 kmh 30.07 in1018.3 mb - 0.00 in0.0 mm 0.00 in0.0 mm
12:45 PM 79.3°F26.3°C 33.5°F0.8°C 19% 0.8 mph S1.3 kmh S 1.0 mph1.6 kmh 30.06 in1017.9 mb - 0.00 in0.0 mm 0.00 in0.0 mm
01:00 PM 79.2°F26.2°C 32.0°F0.0°C 18% 0.1 mph SSW0.2 kmh SSW -- 30.05 in1017.6 mb - 0.00 in0.0 mm 0.00 in0.0 mm
01:15 PM 80.5°F26.9°C 31.7°F-0.2°C 17% Calm Calm -- 30.05 in1017.6 mb - 0.00 in0.0 mm 0.00 in0.0 mm
01:30 PM 81.7°F27.6°C 31.1°F-0.5°C 16% 0.9 mph SE1.4 kmh SE 1.0 mph1.6 kmh 30.04 in1017.3 mb - 0.00 in0.0 mm 0.00 in0.0 mm
01:45 PM 80.8°F27.1°C 31.9°F-0.1°C 17% 1.0 mph SW1.6 kmh SW 2.0 mph3.2 kmh 30.03 in1016.9 mb - 0.00 in0.0 mm 0.00 in0.0 mm
02:00 PM 82.1°F27.8°C 31.5°F-0.3°C 16% Calm Calm 1.0 mph1.6 kmh 30.02 in1016.6 mb - 0.00 in0.0 mm 0.00 in0.0 mm
02:15 PM 83.3°F28.5°C 32.4°F0.2°C 16% 0.7 mph WSW1.1 kmh WSW 2.0 mph3.2 kmh 30.02 in1016.6 mb - 0.00 in0.0 mm 0.00 in0.0 mm
02:30 PM 83.4°F28.6°C 30.9°F-0.6°C 15% Calm Calm 1.0 mph1.6 kmh 30.02 in1016.6 mb - 0.00 in0.0 mm 0.00 in0.0 mm
02:45 PM 84.2°F29.0°C 31.5°F-0.3°C 15% 0.4 mph S0.6 kmh S 1.0 mph1.6 kmh 30.01 in1016.3 mb - 0.00 in0.0 mm 0.00 in0.0 mm
03:00 PM 84.0°F28.9°C 31.4°F-0.3°C 15% 0.7 mph ESE1.1 kmh ESE -- 30.01 in1016.3 mb - 0.00 in0.0 mm 0.00 in0.0 mm
03:15 PM 84.2°F29.0°C 31.5°F-0.3°C 15% 1.2 mph SE1.9 kmh SE 3.0 mph4.8 kmh 30.00 in1015.9 mb - 0.00 in0.0 mm 0.00 in0.0 mm
03:30 PM 84.3°F29.1°C 31.6°F-0.2°C 15% 0.7 mph S1.1 kmh S 2.0 mph3.2 kmh 30.00 in1015.9 mb - 0.00 in0.0 mm 0.00 in0.0 mm
03:45 PM 85.0°F29.4°C 32.2°F0.1°C 15% 0.7 mph S1.1 kmh S 1.0 mph1.6 kmh 30.00 in1015.9 mb - 0.00 in0.0 mm 0.00 in0.0 mm
04:00 PM 85.3°F29.6°C 30.7°F-0.7°C 14% 0.5 mph SSW0.8 kmh SSW 2.0 mph3.2 kmh 30.00 in1015.9 mb - 0.00 in0.0 mm 0.00 in0.0 mm
04:15 PM 85.6°F29.8°C 29.1°F-1.6°C 13% 0.3 mph S0.5 kmh S 1.0 mph1.6 kmh 30.00 in1015.9 mb - 0.00 in0.0 mm 0.00 in0.0 mm
04:30 PM 85.7°F29.8°C 29.2°F-1.6°C 13% 2.8 mph ESE4.5 kmh ESE 4.0 mph6.4 kmh 30.00 in1015.9 mb - 0.00 in0.0 mm 0.00 in0.0 mm
04:45 PM 85.3°F29.6°C 30.7°F-0.7°C 14% 0.4 mph WSW0.6 kmh WSW 1.0 mph1.6 kmh 30.00 in1015.9 mb - 0.00 in0.0 mm 0.00 in0.0 mm
05:00 PM 85.4°F29.7°C 30.8°F-0.7°C 14% Calm Calm -- 30.01 in1016.3 mb - 0.00 in0.0 mm 0.00 in0.0 mm
05:15 PM 85.1°F29.5°C 28.7°F-1.8°C 13% 1.0 mph SSW1.6 kmh SSW 1.0 mph1.6 kmh 30.01 in1016.3 mb - 0.00 in0.0 mm 0.00 in0.0 mm
05:30 PM 84.8°F29.3°C 30.3°F-0.9°C 14% 0.7 mph S1.1 kmh S 2.0 mph3.2 kmh 30.01 in1016.3 mb - 0.00 in0.0 mm 0.00 in0.0 mm
05:45 PM 84.5°F29.2°C 31.8°F-0.1°C 15% Calm Calm -- 30.01 in1016.3 mb - 0.00 in0.0 mm 0.00 in0.0 mm
06:00 PM 81.2°F27.3°C 30.7°F-0.7°C 16% Calm Calm -- 30.01 in1016.3 mb - 0.00 in0.0 mm 0.00 in0.0 mm
06:15 PM 78.3°F25.7°C 31.2°F-0.4°C 18% Calm Calm -- 30.02 in1016.6 mb - 0.00 in0.0 mm 0.00 in0.0 mm
06:30 PM 77.3°F25.2°C 30.5°F-0.8°C 18% 0.9 mph NNW1.4 kmh NNW 2.0 mph3.2 kmh 30.02 in1016.6 mb - 0.00 in0.0 mm 0.00 in0.0 mm
06:45 PM 76.6°F24.8°C 32.5°F0.3°C 20% Calm Calm -- 30.02 in1016.6 mb - 0.00 in0.0 mm 0.00 in0.0 mm
07:00 PM 75.8°F24.3°C 30.6°F-0.8°C 19% Calm Calm -- 30.02 in1016.6 mb - 0.00 in0.0 mm 0.00 in0.0 mm
07:15 PM 72.6°F22.6°C 31.5°F-0.3°C 22% Calm Calm -- 30.02 in1016.6 mb - 0.00 in0.0 mm 0.00 in0.0 mm
07:30 PM 71.6°F22.0°C 31.8°F-0.1°C 23% Calm Calm -- 30.03 in1016.9 mb - 0.00 in0.0 mm 0.00 in0.0 mm
07:45 PM 71.0°F21.7°C 31.3°F-0.4°C 23% Calm Calm -- 30.03 in1016.9 mb - 0.00 in0.0 mm 0.00 in0.0 mm
08:00 PM 68.4°F20.2°C 33.1°F0.6°C 27% Calm Calm -- 30.03 in1016.9 mb - 0.00 in0.0 mm 0.00 in0.0 mm
08:15 PM 66.4°F19.1°C 33.1°F0.6°C 29% Calm Calm -- 30.03 in1016.9 mb - 0.00 in0.0 mm 0.00 in0.0 mm
08:30 PM 65.4°F18.6°C 33.1°F0.6°C 30% Calm Calm -- 30.04 in1017.3 mb - 0.00 in0.0 mm 0.00 in0.0 mm
08:45 PM 67.0°F19.4°C 32.8°F0.4°C 28% Calm Calm -- 30.04 in1017.3 mb - 0.00 in0.0 mm 0.00 in0.0 mm
09:00 PM 66.4°F19.1°C 31.4°F-0.3°C 27% Calm Calm -- 30.03 in1016.9 mb - 0.00 in0.0 mm 0.00 in0.0 mm
09:15 PM 64.8°F18.2°C 30.9°F-0.6°C 28% Calm Calm -- 30.04 in1017.3 mb - 0.00 in0.0 mm 0.00 in0.0 mm
09:30 PM 64.8°F18.2°C 30.9°F-0.6°C 28% Calm Calm 1.0 mph1.6 kmh 30.04 in1017.3 mb - 0.00 in0.0 mm 0.00 in0.0 mm
09:45 PM 64.7°F18.2°C 30.8°F-0.7°C 28% Calm Calm -- 30.04 in1017.3 mb - 0.00 in0.0 mm 0.00 in0.0 mm
10:00 PM 64.2°F17.9°C 30.4°F-0.9°C 28% 0.1 mph W0.2 kmh W 1.0 mph1.6 kmh 30.04 in1017.3 mb - 0.00 in0.0 mm 0.00 in0.0 mm
10:15 PM 64.3°F17.9°C 30.5°F-0.8°C 28% Calm Calm -- 30.04 in1017.3 mb - 0.00 in0.0 mm 0.00 in0.0 mm
10:30 PM 63.6°F17.6°C 30.8°F-0.7°C 29% Calm Calm -- 30.05 in1017.6 mb - 0.00 in0.0 mm 0.00 in0.0 mm
10:45 PM 62.5°F16.9°C 30.6°F-0.8°C 30% Calm Calm -- 30.05 in1017.6 mb - 0.00 in0.0 mm 0.00 in0.0 mm
11:00 PM 61.4°F16.3°C 31.2°F-0.4°C 32% Calm Calm -- 30.05 in1017.6 mb - 0.00 in0.0 mm 0.00 in0.0 mm
11:15 PM 59.9°F15.5°C 31.4°F-0.3°C 34% Calm Calm 1.0 mph1.6 kmh 30.05 in1017.6 mb - 0.00 in0.0 mm 0.00 in0.0 mm
11:30 PM 59.4°F15.2°C 31.0°F-0.6°C 34% Calm Calm 1.0 mph1.6 kmh 30.05 in1017.6 mb - 0.00 in0.0 mm 0.00 in0.0 mm
11:45 PM 58.4°F14.7°C 31.5°F-0.3°C 36% Calm Calm -- 30.05 in1017.6 mb - 0.00 in0.0 mm 0.00 in0.0 mm